Time;durP1;ratioP1;P1;durP2;ratioP2;P2;SDS_P1;SDS_P2;PMS_P1;PMS_P2;Temp;Humidity;BMP_temperature;BMP_pressure;BME280_temperature;BME280_humidity;BME280_pressure;Samples;Min_cycle;Max_cycle;Signal;HPM_P1;HPM_P2
2021/05/28 00:00:33;;;;;;;1.58;1.20;;;15.10;99.90;;;;;;5091475;28;20377;-85
2021/05/28 00:02:59;;;;;;;1.60;1.25;;;15.20;99.90;;;;;;5081742;28;20388;-85
2021/05/28 00:05:24;;;;;;;2.25;1.10;;;15.10;99.90;;;;;;5084768;28;20035;-85
2021/05/28 00:07:50;;;;;;;2.75;1.40;;;15.10;99.90;;;;;;5085111;28;20028;-86
2021/05/28 00:10:16;;;;;;;3.40;1.30;;;15.20;99.90;;;;;;5083438;28;20051;-84
2021/05/28 00:12:42;;;;;;;2.70;1.17;;;15.10;99.90;;;;;;5090182;28;20032;-85
2021/05/28 00:15:12;;;;;;;2.00;1.50;;;15.00;99.90;;;;;;5057764;28;20484;-86
2021/05/28 00:17:38;;;;;;;1.50;1.40;;;15.10;99.90;;;;;;5077953;28;20125;-85
2021/05/28 00:20:09;;;;;;;2.08;1.35;;;15.00;99.90;;;;;;5089717;28;20550;-86
2021/05/28 00:22:43;;;;;;;1.70;1.30;;;14.80;99.90;;;;;;5079773;28;20523;-86
2021/05/28 00:25:11;;;;;;;3.58;1.30;;;14.70;99.90;;;;;;5072607;28;20106;-86
2021/05/28 00:27:36;;;;;;;1.35;1.25;;;14.80;99.90;;;;;;5090341;28;20491;-86
2021/05/28 00:30:06;;;;;;;2.67;1.50;;;14.80;99.90;;;;;;5077839;28;20297;-85
2021/05/28 00:32:31;;;;;;;1.45;1.35;;;14.90;99.90;;;;;;5089790;28;20048;-86
2021/05/28 00:34:57;;;;;;;1.92;1.30;;;14.70;99.90;;;;;;5069990;28;20412;-85
2021/05/28 00:37:23;;;;;;;1.98;1.35;;;14.60;99.90;;;;;;5090903;28;20037;-85
2021/05/28 00:39:48;;;;;;;1.70;1.60;;;14.50;99.90;;;;;;5089588;28;20039;-85
2021/05/28 00:42:14;;;;;;;1.50;1.30;;;14.50;1.00;;;;;;5084435;28;20028;-86
2021/05/28 00:44:40;;;;;;;2.70;1.50;;;14.40;1.00;;;;;;5058188;28;20396;-85
2021/05/28 00:47:07;;;;;;;2.08;1.75;;;14.40;1.00;;;;;;5088668;28;20024;-86
2021/05/28 00:49:32;;;;;;;1.63;1.52;;;14.70;1.00;;;;;;5086206;28;20028;-84
2021/05/28 00:51:58;;;;;;;1.75;1.58;;;14.50;1.00;;;;;;5071661;28;22727;-84
2021/05/28 00:54:24;;;;;;;2.47;1.50;;;14.60;99.90;;;;;;5090139;28;20028;-85
2021/05/28 00:56:51;;;;;;;1.60;1.50;;;14.40;1.00;;;;;;5093808;28;20024;-85
2021/05/28 00:59:17;;;;;;;2.00;1.80;;;14.40;1.00;;;;;;5083501;28;20043;-85
2021/05/28 01:01:43;;;;;;;4.05;1.33;;;14.50;1.00;;;;;;5065048;28;20035;-85
2021/05/28 01:04:08;;;;;;;1.90;1.40;;;14.20;1.00;;;;;;5089410;28;20064;-85
2021/05/28 01:06:35;;;;;;;3.30;1.77;;;14.60;1.00;;;;;;5087116;28;20032;-85
2021/05/28 01:09:01;;;;;;;1.52;1.42;;;14.10;1.00;;;;;;5091081;28;20024;-85
2021/05/28 01:11:26;;;;;;;1.48;1.38;;;14.00;1.00;;;;;;5092023;28;20028;-86
2021/05/28 01:13:52;;;;;;;1.88;1.48;;;14.00;1.00;;;;;;5084305;28;20024;-85
2021/05/28 01:16:18;;;;;;;1.58;1.48;;;14.50;1.00;;;;;;5088580;28;20036;-85
2021/05/28 01:18:44;;;;;;;3.13;1.60;;;13.90;1.00;;;;;;5086221;28;20060;-85
2021/05/28 01:21:10;;;;;;;1.60;1.48;;;13.70;1.00;;;;;;5093573;28;20370;-85
2021/05/28 01:23:36;;;;;;;1.60;1.50;;;13.80;1.00;;;;;;5084088;28;20103;-85
2021/05/28 01:26:06;;;;;;;1.98;1.50;;;13.70;1.00;;;;;;5082891;28;20021;-85
2021/05/28 01:28:33;;;;;;;2.15;1.30;;;13.80;1.00;;;;;;5087378;28;20039;-85
2021/05/28 01:30:59;;;;;;;1.45;1.35;;;13.70;1.00;;;;;;5089429;28;20772;-85
2021/05/28 01:33:26;;;;;;;2.58;1.30;;;13.80;1.00;;;;;;5069057;28;20056;-85
2021/05/28 01:35:52;;;;;;;2.58;1.55;;;14.00;1.00;;;;;;5070041;28;20465;-86
2021/05/28 01:38:18;;;;;;;1.50;1.30;;;13.80;1.00;;;;;;5071272;28;20040;-85
2021/05/28 01:40:44;;;;;;;2.45;1.70;;;13.70;1.00;;;;;;5073182;28;20095;-85
2021/05/28 01:43:09;;;;;;;2.03;1.58;;;13.70;1.00;;;;;;5073328;28;20025;-86
2021/05/28 01:45:35;;;;;;;1.65;1.55;;;13.50;1.00;;;;;;5055531;28;20055;-86
2021/05/28 01:48:02;;;;;;;2.97;1.48;;;13.50;1.00;;;;;;5066315;28;20032;-85
2021/05/28 01:50:28;;;;;;;1.75;1.60;;;13.50;1.00;;;;;;5071172;28;20542;-85
2021/05/28 01:52:54;;;;;;;2.47;1.52;;;13.50;1.00;;;;;;5071437;28;20044;-85
2021/05/28 01:55:20;;;;;;;1.90;1.70;;;13.60;1.00;;;;;;5054535;28;20017;-85
2021/05/28 01:57:45;;;;;;;2.97;1.58;;;13.40;1.00;;;;;;5054840;28;20112;-85
2021/05/28 02:00:14;;;;;;;4.00;1.65;;;13.50;1.00;;;;;;5071021;28;20024;-85
2021/05/28 02:02:40;;;;;;;2.15;1.63;;;13.40;1.00;;;;;;5071308;28;20028;-85
2021/05/28 02:05:08;;;;;;;3.72;1.60;;;13.30;1.00;;;;;;5055016;28;20818;-85
2021/05/28 02:07:33;;;;;;;4.68;1.48;;;13.30;1.00;;;;;;5071539;28;20072;-85
2021/05/28 02:09:59;;;;;;;3.63;1.60;;;13.30;1.00;;;;;;5072622;28;20055;-85
2021/05/28 02:12:24;;;;;;;1.92;1.63;;;13.30;1.00;;;;;;5054948;28;20028;-85
2021/05/28 02:14:50;;;;;;;2.80;1.70;;;13.30;1.00;;;;;;5072821;28;20053;-85
2021/05/28 02:17:16;;;;;;;3.03;1.63;;;13.30;1.00;;;;;;5054182;28;20471;-85
2021/05/28 02:19:47;;;;;;;2.45;1.65;;;13.40;1.00;;;;;;5053338;28;20029;-85
2021/05/28 02:22:13;;;;;;;2.58;1.60;;;13.40;1.00;;;;;;5069131;28;20108;-85
2021/05/28 02:24:39;;;;;;;2.70;1.60;;;14.00;1.00;;;;;;5072140;28;20021;-85
2021/05/28 02:27:05;;;;;;;1.67;1.58;;;13.40;1.00;;;;;;5070213;28;20028;-85
2021/05/28 02:29:30;;;;;;;1.83;1.73;;;13.50;1.00;;;;;;5070011;28;20078;-85
2021/05/28 02:31:56;;;;;;;1.75;1.50;;;13.40;1.00;;;;;;5068131;28;20098;-86
2021/05/28 02:34:22;;;;;;;2.22;1.60;;;13.40;1.00;;;;;;5070915;28;20083;-85
2021/05/28 02:36:47;;;;;;;1.77;1.65;;;13.30;1.00;;;;;;5072606;28;20056;-85
2021/05/28 02:39:13;;;;;;;2.08;1.77;;;13.20;1.00;;;;;;5071845;28;20362;-85
2021/05/28 02:41:39;;;;;;;1.98;1.70;;;13.10;1.00;;;;;;5054060;28;20032;-85
2021/05/28 02:44:05;;;;;;;3.13;1.58;;;13.00;1.00;;;;;;5069120;28;20028;-84
2021/05/28 02:46:33;;;;;;;2.05;1.75;;;12.80;1.00;;;;;;5069186;28;20078;-86
2021/05/28 02:48:59;;;;;;;2.17;1.98;;;12.90;1.00;;;;;;5052711;28;20090;-86
2021/05/28 02:51:25;;;;;;;1.75;1.48;;;13.00;1.00;;;;;;5071735;28;20489;-85
2021/05/28 02:53:50;;;;;;;3.05;1.70;;;12.90;1.00;;;;;;5068052;28;20035;-85
2021/05/28 02:56:16;;;;;;;1.60;1.50;;;13.10;1.00;;;;;;5068186;28;20473;-85
2021/05/28 02:58:42;;;;;;;2.58;1.50;;;13.00;1.00;;;;;;5070215;28;20033;-85
2021/05/28 03:01:07;;;;;;;1.83;1.48;;;12.90;1.00;;;;;;5070688;28;20041;-85
2021/05/28 03:03:33;;;;;;;1.58;1.48;;;13.00;1.00;;;;;;5072251;28;20067;-86
2021/05/28 03:05:58;;;;;;;2.20;1.67;;;13.00;1.00;;;;;;5069462;28;20031;-85
2021/05/28 03:08:26;;;;;;;2.13;1.73;;;12.90;1.00;;;;;;5069833;28;20063;-85
2021/05/28 03:10:52;;;;;;;2.28;2.05;;;12.80;1.00;;;;;;5069902;28;20040;-85
2021/05/28 03:13:18;;;;;;;3.80;1.70;;;12.80;1.00;;;;;;5068039;28;20037;-85
2021/05/28 03:15:43;;;;;;;3.70;1.73;;;12.70;1.00;;;;;;5071468;28;20075;-85
2021/05/28 03:18:35;;;;;;;1.80;1.60;;;12.70;1.00;;;;;;5070500;28;20078;-85
2021/05/28 03:21:18;;;;;;;4.03;1.60;;;12.70;1.00;;;;;;5070696;28;20024;-86
2021/05/28 03:23:43;;;;;;;3.10;1.70;;;12.70;1.00;;;;;;5068285;28;20025;-85
2021/05/28 03:26:09;;;;;;;1.88;1.73;;;12.60;1.00;;;;;;5069521;28;20088;-85
2021/05/28 03:28:35;;;;;;;3.85;1.50;;;12.70;1.00;;;;;;5069939;28;20468;-86
2021/05/28 03:31:00;;;;;;;1.60;1.48;;;12.80;1.00;;;;;;5072024;28;20078;-85
2021/05/28 03:33:26;;;;;;;2.45;1.65;;;12.80;1.00;;;;;;5071583;28;20051;-85
2021/05/28 03:35:52;;;;;;;1.77;1.50;;;12.80;1.00;;;;;;5052812;28;20111;-85
2021/05/28 03:38:17;;;;;;;2.03;1.83;;;12.70;1.00;;;;;;5067879;28;20032;-85
2021/05/28 03:40:43;;;;;;;3.40;1.75;;;12.60;1.00;;;;;;5070255;28;20017;-85
2021/05/28 03:43:09;;;;;;;2.10;1.88;;;12.50;1.00;;;;;;5069832;28;20485;-85
2021/05/28 03:45:34;;;;;;;1.77;1.67;;;12.50;1.00;;;;;;5071869;28;20035;-85
2021/05/28 03:48:00;;;;;;;1.80;1.70;;;12.50;1.00;;;;;;5051818;28;20031;-85
2021/05/28 03:50:25;;;;;;;2.25;1.63;;;12.50;1.00;;;;;;5070459;28;20025;-86
2021/05/28 03:52:51;;;;;;;3.40;2.00;;;12.80;1.00;;;;;;5068783;28;20021;-85
2021/05/28 03:55:16;;;;;;;3.00;1.77;;;12.70;1.00;;;;;;5068783;28;20107;-85
2021/05/28 03:57:42;;;;;;;3.30;1.90;;;12.70;1.00;;;;;;5071253;28;20037;-85
2021/05/28 04:00:08;;;;;;;2.10;1.85;;;13.00;1.00;;;;;;5069023;28;20056;-85
2021/05/28 04:02:34;;;;;;;2.53;1.70;;;12.50;1.00;;;;;;5071119;28;20021;-86
2021/05/28 04:04:59;;;;;;;2.50;1.98;;;12.70;1.00;;;;;;5068463;28;20090;-85
2021/05/28 04:07:27;;;;;;;2.20;1.80;;;12.60;1.00;;;;;;5068713;28;20115;-86
2021/05/28 04:09:52;;;;;;;4.00;2.08;;;12.70;1.00;;;;;;5071168;28;20024;-86
2021/05/28 04:12:18;;;;;;;3.08;1.90;;;12.60;1.00;;;;;;5071477;28;20024;-85
2021/05/28 04:14:44;;;;;;;4.13;1.98;;;12.60;1.00;;;;;;5068010;28;20024;-85
2021/05/28 04:17:09;;;;;;;2.50;1.98;;;12.60;1.00;;;;;;5068167;28;20476;-85
2021/05/28 04:19:35;;;;;;;1.83;1.60;;;12.60;1.00;;;;;;5067104;28;20098;-85
2021/05/28 04:22:01;;;;;;;1.90;1.80;;;12.50;1.00;;;;;;5070156;28;20059;-85
2021/05/28 04:24:26;;;;;;;1.90;1.70;;;12.50;1.00;;;;;;5074209;28;20078;-85
2021/05/28 04:26:52;;;;;;;2.25;2.00;;;12.80;1.00;;;;;;5074948;28;20052;-85
2021/05/28 04:29:19;;;;;;;3.50;2.00;;;12.60;1.00;;;;;;5072186;28;20033;-84
2021/05/28 04:31:45;;;;;;;2.17;1.75;;;12.50;1.00;;;;;;5077900;28;20135;-85
2021/05/28 04:34:11;;;;;;;1.90;1.63;;;12.50;1.00;;;;;;5093478;28;20419;-86
2021/05/28 04:36:36;;;;;;;2.20;1.77;;;12.60;1.00;;;;;;5095165;28;20032;-86
2021/05/28 04:39:03;;;;;;;2.10;1.70;;;12.60;1.00;;;;;;5093683;28;20040;-86
2021/05/28 04:41:29;;;;;;;1.98;1.80;;;12.60;1.00;;;;;;5091305;28;20012;-84
2021/05/28 04:43:54;;;;;;;1.95;1.75;;;12.80;1.00;;;;;;5076240;28;20078;-84
2021/05/28 04:46:20;;;;;;;3.25;1.80;;;12.60;1.00;;;;;;5094699;28;20024;-85
2021/05/28 04:48:46;;;;;;;2.22;1.92;;;12.80;1.00;;;;;;5093799;28;20024;-85
2021/05/28 04:51:11;;;;;;;2.42;1.88;;;12.90;1.00;;;;;;5092624;28;20032;-85
2021/05/28 04:53:37;;;;;;;2.70;1.90;;;12.70;1.00;;;;;;5093004;28;20488;-85
2021/05/28 04:56:03;;;;;;;1.95;1.75;;;13.00;1.00;;;;;;5087504;28;20127;-86
2021/05/28 04:58:28;;;;;;;1.80;1.70;;;12.70;1.00;;;;;;5094124;28;20557;-85
2021/05/28 05:00:54;;;;;;;3.65;1.65;;;12.80;1.00;;;;;;5091290;28;20127;-85
2021/05/28 05:03:20;;;;;;;3.05;2.00;;;12.80;1.00;;;;;;5064553;28;20515;-85
2021/05/28 05:05:46;;;;;;;9.75;2.75;;;13.00;1.00;;;;;;5094092;28;20019;-87
2021/05/28 05:08:11;;;;;;;1.95;1.80;;;12.80;1.00;;;;;;5068117;28;20432;-86
2021/05/28 05:10:37;;;;;;;3.22;1.85;;;12.70;1.00;;;;;;5088556;28;20021;-87
2021/05/28 05:13:10;;;;;;;1.60;1.50;;;12.70;1.00;;;;;;5094121;28;20077;-87
2021/05/28 05:15:36;;;;;;;2.17;1.45;;;12.70;1.00;;;;;;5056714;28;20032;-86
2021/05/28 05:18:02;;;;;;;2.55;1.95;;;13.30;1.00;;;;;;5092941;28;20032;-87
2021/05/28 05:20:27;;;;;;;2.85;1.83;;;12.80;1.00;;;;;;5092540;28;20149;-86
2021/05/28 05:22:53;;;;;;;1.80;1.60;;;13.10;1.00;;;;;;5090702;28;20103;-85
2021/05/28 05:25:19;;;;;;;2.83;1.58;;;12.90;1.00;;;;;;5092526;28;20024;-85
2021/05/28 05:27:44;;;;;;;2.67;1.50;;;12.90;1.00;;;;;;5093581;28;20034;-87
2021/05/28 05:30:11;;;;;;;3.45;2.00;;;13.10;1.00;;;;;;5093754;28;20115;-89
2021/05/28 05:32:37;;;;;;;2.75;1.90;;;13.10;1.00;;;;;;5092336;28;20044;-89
2021/05/28 05:35:03;;;;;;;3.80;2.00;;;13.00;1.00;;;;;;5077201;28;20032;-89
2021/05/28 05:37:28;;;;;;;7.22;2.50;;;13.10;1.00;;;;;;5088407;28;20382;-90
2021/05/28 05:39:54;;;;;;;5.57;2.15;;;13.40;1.00;;;;;;5075802;28;20162;-90
2021/05/28 05:42:20;;;;;;;7.00;2.20;;;13.30;1.00;;;;;;5073456;28;20027;-90
2021/05/28 05:44:45;;;;;;;4.63;2.15;;;13.10;1.00;;;;;;5077493;28;20082;-90
2021/05/28 05:47:11;;;;;;;4.35;2.38;;;13.20;1.00;;;;;;5095370;28;20016;-93
2021/05/28 05:49:37;;;;;;;4.65;1.80;;;13.30;1.00;;;;;;5095211;28;20396;-88
2021/05/28 05:52:04;;;;;;;2.97;2.45;;;13.40;1.00;;;;;;5075256;28;20028;-89
2021/05/28 05:54:30;;;;;;;3.78;2.05;;;13.40;1.00;;;;;;5093844;28;20024;-88
2021/05/28 05:56:56;;;;;;;4.43;2.65;;;13.50;1.00;;;;;;5076104;28;20047;-88
2021/05/28 05:59:22;;;;;;;5.47;3.50;;;13.60;1.00;;;;;;5091239;28;20039;-88
2021/05/28 06:01:48;;;;;;;7.40;2.60;;;13.80;1.00;;;;;;5089165;28;20099;-89
2021/05/28 06:04:13;;;;;;;5.93;3.00;;;13.80;1.00;;;;;;5086609;28;20159;-88
2021/05/28 06:06:40;;;;;;;7.80;2.85;;;13.90;1.00;;;;;;5093726;28;20051;-88
2021/05/28 06:09:06;;;;;;;8.00;3.17;;;14.00;1.00;;;;;;5074312;28;20029;-88
2021/05/28 06:11:32;;;;;;;7.85;3.72;;;14.00;1.00;;;;;;5073999;28;20098;-88
2021/05/28 06:13:58;;;;;;;2.55;2.35;;;14.20;1.00;;;;;;5066759;28;20066;-89
2021/05/28 06:16:23;;;;;;;4.85;2.30;;;14.20;1.00;;;;;;5075373;28;20039;-88
2021/05/28 06:18:49;;;;;;;6.63;2.55;;;14.70;1.00;;;;;;5093047;28;20032;-88
2021/05/28 06:21:15;;;;;;;3.35;2.60;;;14.40;1.00;;;;;;5094043;28;20028;-87
2021/05/28 06:23:40;;;;;;;3.75;2.60;;;14.10;1.00;;;;;;5075914;28;20024;-89
2021/05/28 06:26:06;;;;;;;2.42;2.22;;;14.10;1.00;;;;;;5093693;28;20020;-88
2021/05/28 06:28:31;;;;;;;3.85;2.33;;;14.20;1.00;;;;;;5087789;28;20396;-88
2021/05/28 06:30:57;;;;;;;3.17;2.50;;;14.30;1.00;;;;;;5093396;28;20111;-89
2021/05/28 06:33:23;;;;;;;4.20;2.20;;;14.50;1.00;;;;;;5093517;28;20512;-90
2021/05/28 06:35:49;;;;;;;3.75;2.63;;;14.70;1.00;;;;;;5076233;28;20027;-90
2021/05/28 06:38:16;;;;;;;2.33;2.13;;;14.80;1.00;;;;;;5078843;28;20101;-95
2021/05/28 06:40:41;;;;;;;5.22;2.75;;;14.90;1.00;;;;;;5097368;28;20016;-89
2021/05/28 06:43:08;;;;;;;6.72;2.47;;;14.90;1.00;;;;;;5091741;28;20024;-89
2021/05/28 06:45:35;;;;;;;3.25;2.67;;;15.10;1.00;;;;;;5072757;28;20056;-89
2021/05/28 06:48:01;;;;;;;2.92;2.60;;;15.20;1.00;;;;;;5073714;28;20029;-89
2021/05/28 06:50:30;;;;;;;4.82;2.40;;;15.20;1.00;;;;;;5073574;28;20029;-91
2021/05/28 06:52:57;;;;;;;6.60;2.88;;;15.30;1.00;;;;;;5072239;28;20518;-89
2021/05/28 06:55:22;;;;;;;5.90;2.50;;;15.10;1.00;;;;;;5090622;28;20146;-88
2021/05/28 06:57:48;;;;;;;4.82;2.35;;;15.10;1.00;;;;;;5093797;28;20544;-88
2021/05/28 07:00:14;;;;;;;3.38;2.08;;;15.30;1.00;;;;;;5092828;28;20016;-89
2021/05/28 07:02:40;;;;;;;4.88;2.67;;;15.40;1.00;;;;;;5075221;28;20051;-89
2021/05/28 07:05:06;;;;;;;4.75;2.38;;;15.40;1.00;;;;;;5093028;28;20154;-88
2021/05/28 07:07:32;;;;;;;4.72;2.40;;;15.50;1.00;;;;;;5091040;28;20078;-89
2021/05/28 07:09:59;;;;;;;3.25;2.00;;;15.60;1.00;;;;;;5089918;28;20121;-88
2021/05/28 07:12:25;;;;;;;6.22;2.10;;;15.60;1.00;;;;;;5092432;28;20028;-89
2021/05/28 07:14:50;;;;;;;5.45;2.22;;;15.70;1.00;;;;;;5072582;28;20135;-89
2021/05/28 07:17:16;;;;;;;5.15;2.38;;;15.70;1.00;;;;;;5091092;28;20024;-89
2021/05/28 07:19:42;;;;;;;2.90;2.30;;;15.70;1.00;;;;;;5071506;28;20048;-88
2021/05/28 07:22:07;;;;;;;5.07;2.30;;;15.70;1.00;;;;;;5090831;28;20400;-92
2021/05/28 07:24:33;;;;;;;4.47;2.55;;;15.80;99.90;;;;;;5075124;28;20024;-92
2021/05/28 07:26:59;;;;;;;4.97;2.22;;;15.90;99.90;;;;;;5064874;28;20120;-92
2021/05/28 07:29:25;;;;;;;5.07;2.42;;;15.80;99.90;;;;;;5063415;28;20040;-91
2021/05/28 07:31:51;;;;;;;4.63;2.50;;;15.80;99.90;;;;;;5071487;28;20046;-91
2021/05/28 07:34:17;;;;;;;6.03;2.40;;;15.80;99.90;;;;;;5090382;28;20039;-88
2021/05/28 07:36:42;;;;;;;5.40;2.17;;;15.90;99.90;;;;;;5090634;28;20016;-88
2021/05/28 07:39:08;;;;;;;2.63;2.00;;;16.00;99.90;;;;;;5091117;28;20040;-91
2021/05/28 07:41:36;;;;;;;3.08;2.13;;;16.10;1.00;;;;;;5090094;28;20044;-88
2021/05/28 07:44:02;;;;;;;3.78;2.00;;;16.30;99.90;;;;;;5089269;28;20043;-89
2021/05/28 07:46:28;;;;;;;2.70;1.98;;;16.30;99.90;;;;;;5088674;28;20454;-88
2021/05/28 07:48:53;;;;;;;4.10;1.90;;;16.40;99.90;;;;;;5071376;28;20036;-89
2021/05/28 07:51:19;;;;;;;6.40;2.40;;;16.60;99.90;;;;;;5074114;28;20073;-89
2021/05/28 07:53:45;;;;;;;4.32;2.20;;;16.60;99.90;;;;;;5073470;28;20499;-88
2021/05/28 07:56:10;;;;;;;2.60;2.20;;;16.70;99.90;;;;;;5088778;28;20024;-88
2021/05/28 07:58:36;;;;;;;4.22;2.20;;;16.70;99.90;;;;;;5075801;28;20028;-88
2021/05/28 08:01:03;;;;;;;4.65;1.90;;;16.70;99.90;;;;;;5092503;28;20012;-88
2021/05/28 08:03:29;;;;;;;4.43;2.30;;;16.90;99.90;;;;;;5092615;28;20028;-89
2021/05/28 08:05:55;;;;;;;2.95;2.03;;;17.00;99.90;;;;;;5077365;28;20026;-89
2021/05/28 08:08:25;;;;;;;2.75;2.20;;;17.00;99.90;;;;;;5093752;28;20024;-88
2021/05/28 08:10:51;;;;;;;4.45;2.08;;;16.80;99.90;;;;;;5095423;28;20446;-89
2021/05/28 08:13:16;;;;;;;3.28;2.10;;;16.90;99.90;;;;;;5076304;28;20024;-88
2021/05/28 08:15:42;;;;;;;2.47;1.95;;;17.10;99.90;;;;;;5077474;28;20028;-89
2021/05/28 08:18:08;;;;;;;4.88;2.40;;;17.20;99.90;;;;;;5093979;28;20043;-88
2021/05/28 08:20:34;;;;;;;4.22;3.70;;;17.40;99.90;;;;;;5075332;28;20419;-89
2021/05/28 08:22:59;;;;;;;4.40;2.38;;;17.40;99.90;;;;;;5076606;28;20031;-88
2021/05/28 08:25:26;;;;;;;3.80;2.53;;;17.40;99.90;;;;;;5093390;28;20107;-88
2021/05/28 08:27:52;;;;;;;4.65;2.40;;;17.20;99.90;;;;;;5075252;28;20263;-88
2021/05/28 08:30:18;;;;;;;3.22;2.10;;;17.30;99.90;;;;;;5094604;28;20024;-88
2021/05/28 08:32:44;;;;;;;3.67;2.20;;;17.20;99.90;;;;;;5076089;28;20059;-88
2021/05/28 08:35:10;;;;;;;5.93;3.03;;;17.40;99.90;;;;;;5076741;28;20046;-88
2021/05/28 08:37:37;;;;;;;3.70;2.08;;;17.40;99.90;;;;;;5077183;28;20024;-88
2021/05/28 08:40:04;;;;;;;3.58;2.03;;;18.20;99.90;;;;;;5093509;28;20020;-88
2021/05/28 08:42:30;;;;;;;5.45;2.67;;;17.70;99.90;;;;;;5094484;28;20111;-88
2021/05/28 08:44:56;;;;;;;3.92;2.00;;;17.70;99.90;;;;;;5077356;28;20038;-88
2021/05/28 08:47:23;;;;;;;6.07;2.72;;;17.80;99.90;;;;;;5076924;28;20020;-88
2021/05/28 08:49:50;;;;;;;2.65;2.30;;;18.00;99.90;;;;;;5074520;28;20488;-88
2021/05/28 08:52:16;;;;;;;4.03;2.40;;;17.70;99.90;;;;;;5092754;28;20024;-88
2021/05/28 08:54:42;;;;;;;1.80;1.70;;;17.70;99.90;;;;;;5094502;28;20024;-88
2021/05/28 08:57:09;;;;;;;4.25;2.00;;;17.90;99.90;;;;;;5092000;28;20027;-88
2021/05/28 08:59:35;;;;;;;2.40;2.00;;;18.00;99.90;;;;;;5094360;28;20066;-87
2021/05/28 09:02:00;;;;;;;2.35;1.90;;;18.20;99.90;;;;;;5094740;28;21944;-86
2021/05/28 09:04:26;;;;;;;4.28;2.50;;;18.30;99.90;;;;;;5094459;28;20103;-87
2021/05/28 09:06:51;;;;;;;3.28;1.50;;;18.30;99.90;;;;;;5074869;28;20028;-87
2021/05/28 09:09:19;;;;;;;4.90;1.80;;;18.50;99.90;;;;;;5091138;28;20869;-88
2021/05/28 09:11:55;;;;;;;2.03;1.60;;;18.60;99.90;;;;;;5093347;28;20101;-88
2021/05/28 09:14:40;;;;;;;3.08;1.60;;;18.70;99.90;;;;;;5075482;28;20020;-87
2021/05/28 09:17:11;;;;;;;3.80;3.50;;;18.80;99.90;;;;;;5074089;28;20484;-88
2021/05/28 09:19:38;;;;;;;1.60;1.42;;;18.90;99.90;;;;;;5069516;28;20147;-91
2021/05/28 09:22:09;;;;;;;2.80;1.48;;;19.00;99.90;;;;;;5073854;28;20026;-88
2021/05/28 09:24:37;;;;;;;2.08;1.50;;;19.10;99.90;;;;;;5093883;28;20078;-87
2021/05/28 09:27:27;;;;;;;1.85;1.75;;;19.20;99.90;;;;;;5074888;28;20088;-87
2021/05/28 09:30:05;;;;;;;2.95;1.77;;;19.40;99.90;;;;;;5091956;28;20020;-87
2021/05/28 09:32:33;;;;;;;1.80;1.70;;;19.40;99.90;;;;;;5065216;28;20071;-87
2021/05/28 09:34:59;;;;;;;2.95;2.05;;;19.20;99.90;;;;;;5054317;28;20051;-87
2021/05/28 09:37:52;;;;;;;4.30;1.67;;;19.40;99.90;;;;;;5071392;28;20028;-88
2021/05/28 09:40:23;;;;;;;2.45;1.38;;;19.40;99.90;;;;;;5048609;28;20059;-87
2021/05/28 09:42:57;;;;;;;4.65;4.22;;;19.40;99.90;;;;;;5071251;28;20095;-87
2021/05/28 09:45:32;;;;;;;8.15;4.90;;;19.50;99.90;;;;;;5062751;28;20063;-86
2021/05/28 09:48:04;;;;;;;3.92;3.10;;;19.60;99.90;;;;;;5071572;28;20028;-87
2021/05/28 09:50:33;;;;;;;3.65;3.33;;;19.50;99.90;;;;;;5054252;28;20024;-88
2021/05/28 09:53:04;;;;;;;8.52;2.80;;;19.60;99.90;;;;;;5054381;28;20109;-88
2021/05/28 09:55:31;;;;;;;3.53;2.30;;;19.80;99.90;;;;;;5051820;28;20024;-88
2021/05/28 09:57:58;;;;;;;3.42;2.03;;;19.90;99.90;;;;;;5053599;28;20119;-87
2021/05/28 10:00:33;;;;;;;3.67;2.60;;;19.80;99.90;;;;;;5073080;28;20020;-86
2021/05/28 10:03:22;;;;;;;7.00;3.28;;;19.80;99.90;;;;;;5071047;28;20037;-86
2021/05/28 10:06:06;;;;;;;3.70;2.85;;;20.10;99.90;;;;;;5071445;28;20028;-87
2021/05/28 10:08:33;;;;;;;4.60;2.97;;;20.20;99.90;;;;;;5070805;28;20029;-87
2021/05/28 10:10:59;;;;;;;2.45;2.10;;;20.30;99.90;;;;;;5062439;28;20070;-88
2021/05/28 10:13:28;;;;;;;3.60;2.35;;;20.50;99.90;;;;;;5072041;28;20036;-85
2021/05/28 10:15:55;;;;;;;5.18;2.53;;;20.30;99.90;;;;;;5072287;28;20020;-87
2021/05/28 10:18:22;;;;;;;2.50;2.13;;;20.10;99.90;;;;;;5072637;28;20119;-87
2021/05/28 10:20:53;;;;;;;2.25;1.98;;;19.90;99.90;;;;;;5070333;28;20103;-88
2021/05/28 10:23:20;;;;;;;2.72;2.53;;;20.00;99.90;;;;;;5070559;28;20108;-87
2021/05/28 10:25:47;;;;;;;3.00;2.10;;;20.20;99.90;;;;;;5070343;28;20024;-87
2021/05/28 10:28:21;;;;;;;3.40;2.00;;;20.30;99.90;;;;;;5071303;28;20028;-88
2021/05/28 10:30:49;;;;;;;3.08;2.20;;;20.70;99.90;;;;;;5071452;28;20032;-87
2021/05/28 10:33:25;;;;;;;2.83;2.13;;;20.70;99.90;;;;;;5070174;28;20500;-87
2021/05/28 10:35:57;;;;;;;2.72;1.88;;;20.70;99.90;;;;;;5070894;28;20028;-87
2021/05/28 10:38:37;;;;;;;3.58;2.13;;;20.60;99.90;;;;;;5052304;28;20033;-85
2021/05/28 10:41:06;;;;;;;3.50;1.70;;;20.60;99.90;;;;;;5070344;28;20461;-87
2021/05/28 10:43:33;;;;;;;4.15;1.60;;;20.50;99.90;;;;;;5052795;28;20017;-87
2021/05/28 10:46:00;;;;;;;2.30;1.48;;;20.70;99.90;;;;;;5070227;28;20041;-88
2021/05/28 10:48:42;;;;;;;1.67;1.58;;;21.00;99.90;;;;;;5071289;28;20036;-87
2021/05/28 10:51:08;;;;;;;2.92;1.58;;;21.10;99.90;;;;;;5070729;28;20021;-86
2021/05/28 10:53:35;;;;;;;2.88;1.73;;;21.20;99.90;;;;;;5060185;28;20445;-94
2021/05/28 10:56:13;;;;;;;2.17;1.80;;;21.10;99.90;;;;;;5051700;28;20024;-88
2021/05/28 10:58:57;;;;;;;2.90;1.63;;;21.10;99.90;;;;;;5071843;28;20516;-92
2021/05/28 11:01:35;;;;;;;2.33;1.60;;;21.20;99.90;;;;;;5057629;28;20527;-91
2021/05/28 11:04:05;;;;;;;1.95;1.75;;;21.10;99.90;;;;;;5069399;28;20450;-89
2021/05/28 11:06:32;;;;;;;3.17;1.77;;;21.20;99.90;;;;;;5072131;28;20028;-90
2021/05/28 11:09:08;;;;;;;3.03;1.80;;;21.30;99.90;;;;;;5053911;28;20025;-89
2021/05/28 11:11:36;;;;;;;2.58;2.00;;;21.20;99.90;;;;;;5068208;28;20564;-88
2021/05/28 11:14:19;;;;;;;1.52;1.40;;;21.30;99.90;;;;;;5067861;28;20035;-88
2021/05/28 11:16:54;;;;;;;2.53;1.67;;;21.50;99.90;;;;;;5069766;28;20489;-88
2021/05/28 11:19:24;;;;;;;2.75;1.90;;;21.50;99.90;;;;;;5052920;28;20036;-89
2021/05/28 11:22:07;;;;;;;2.92;1.90;;;21.80;99.90;;;;;;5070132;28;20024;-89
2021/05/28 11:24:56;;;;;;;4.40;2.03;;;21.50;99.90;;;;;;5071402;28;20435;-89
2021/05/28 11:27:25;;;;;;;2.47;2.10;;;21.90;99.90;;;;;;5069644;28;20033;-89
2021/05/28 11:30:16;;;;;;;3.67;2.00;;;21.40;99.90;;;;;;5069583;28;20099;-89
2021/05/28 11:32:45;;;;;;;4.55;1.55;;;21.60;99.90;;;;;;5068888;28;20048;-89
2021/05/28 11:35:34;;;;;;;2.95;1.70;;;21.80;99.90;;;;;;5052861;28;20484;-88
2021/05/28 11:38:04;;;;;;;5.03;1.95;;;22.00;99.90;;;;;;5051402;28;20091;-89
2021/05/28 11:40:34;;;;;;;2.55;1.90;;;21.90;99.90;;;;;;5070108;28;20031;-89
2021/05/28 11:43:05;;;;;;;3.30;2.38;;;21.70;99.90;;;;;;5069511;28;20032;-89
2021/05/28 11:45:31;;;;;;;2.67;2.08;;;21.90;99.90;;;;;;5071740;28;20366;-89
2021/05/28 11:47:57;;;;;;;5.80;1.90;;;22.00;99.90;;;;;;5053048;28;20511;-88
2021/05/28 11:50:24;;;;;;;2.65;1.92;;;22.50;99.90;;;;;;5067759;28;20021;-88
2021/05/28 11:53:00;;;;;;;3.50;1.77;;;22.30;99.90;;;;;;5067897;28;20099;-88
2021/05/28 11:55:27;;;;;;;3.38;1.88;;;22.80;99.90;;;;;;5069318;28;20511;-88
2021/05/28 11:58:04;;;;;;;3.03;1.60;;;22.80;99.90;;;;;;5051612;28;20424;-88
2021/05/28 12:00:31;;;;;;;2.97;1.90;;;23.10;99.90;;;;;;5070651;28;20032;-88
2021/05/28 12:02:58;;;;;;;2.50;1.90;;;23.80;99.90;;;;;;5069900;28;20033;-88
2021/05/28 12:05:27;;;;;;;1.92;1.70;;;25.20;99.90;;;;;;5069060;28;20091;-89
2021/05/28 12:07:55;;;;;;;3.42;1.95;;;27.00;99.90;;;;;;5069424;28;20032;-88
2021/05/28 12:10:22;;;;;;;3.38;1.77;;;28.10;99.90;;;;;;5069761;28;20453;-88
2021/05/28 12:12:59;;;;;;;2.67;1.75;;;29.80;99.90;;;;;;5070064;28;20064;-88
2021/05/28 12:15:30;;;;;;;5.22;1.90;;;30.50;99.90;;;;;;5069793;28;20017;-88
2021/05/28 12:17:57;;;;;;;5.30;1.73;;;30.10;99.90;;;;;;5069047;28;20037;-89
2021/05/28 12:20:29;;;;;;;3.53;1.95;;;30.00;99.90;;;;;;5069460;28;20028;-89
2021/05/28 12:23:02;;;;;;;2.53;1.90;;;29.90;99.90;;;;;;5069344;28;20536;-88
2021/05/28 12:25:30;;;;;;;2.72;1.80;;;30.10;99.90;;;;;;5069609;28;20400;-89
2021/05/28 12:28:08;;;;;;;2.20;1.75;;;30.40;99.90;;;;;;5051346;28;20033;-89
2021/05/28 12:30:34;;;;;;;2.30;1.50;;;31.00;99.90;;;;;;5071278;28;20029;-88
2021/05/28 12:32:59;;;;;;;2.63;1.50;;;31.00;99.90;;;;;;5048916;28;20406;-89
2021/05/28 12:35:25;;;;;;;1.77;1.65;;;30.80;99.90;;;;;;5058654;28;20468;-88
2021/05/28 12:38:12;;;;;;;2.15;1.60;;;30.70;99.90;;;;;;5067728;28;20366;-89
2021/05/28 12:40:43;;;;;;;1.80;1.60;;;30.70;99.90;;;;;;5068953;28;20123;-89
2021/05/28 12:43:10;;;;;;;3.33;1.90;;;30.40;99.90;;;;;;5054847;28;20178;-89
2021/05/28 12:45:41;;;;;;;2.30;1.70;;;30.60;99.90;;;;;;5074498;28;20027;-89
2021/05/28 12:48:10;;;;;;;2.92;1.80;;;30.70;99.90;;;;;;5070634;28;20024;-89
2021/05/28 12:50:37;;;;;;;3.28;1.90;;;30.50;99.90;;;;;;5072375;28;20481;-89
2021/05/28 12:53:20;;;;;;;1.80;1.70;;;30.20;99.90;;;;;;5072393;28;20035;-89
2021/05/28 12:55:54;;;;;;;1.85;1.70;;;30.50;99.90;;;;;;5055885;28;20028;-89